Time;durP1;ratioP1;P1;durP2;ratioP2;P2;SDS_P1;SDS_P2;PMS_P1;PMS_P2;Temp;Humidity;BMP_temperature;BMP_pressure;BME280_temperature;BME280_humidity;BME280_pressure;Samples;Min_cycle;Max_cycle;Signal;HPM_P1;HPM_P2
2023/06/16 00:01:39;;;;;;;;;;;19.70;61.50;;;;;;8423542;27;20371;-73
2023/06/16 00:05:43;;;;;;;;;;;19.60;61.60;;;;;;8422185;28;20283;-73
2023/06/16 00:09:46;;;;;;;;;;;19.50;61.80;;;;;;8453417;28;19927;-72
2023/06/16 00:13:48;;;;;;;;;;;19.40;62.00;;;;;;8436460;28;19924;-73
2023/06/16 00:17:50;;;;;;;;;;;19.30;61.90;;;;;;8404099;28;19927;-73
2023/06/16 00:21:52;;;;;;;;;;;19.20;61.90;;;;;;8431494;28;20327;-72
2023/06/16 00:25:53;;;;;;;;;;;19.10;62.10;;;;;;8420882;28;20568;-73
2023/06/16 00:29:55;;;;;;;;;;;19.00;62.10;;;;;;8436257;28;19923;-73
2023/06/16 00:34:00;;;;;;;;;;;18.90;62.90;;;;;;8392243;28;19931;-73
2023/06/16 00:38:02;;;;;;;;;;;18.80;62.30;;;;;;8425173;28;19984;-73
2023/06/16 00:42:04;;;;;;;;;;;18.70;62.60;;;;;;8436255;28;19936;-73
2023/06/16 00:46:07;;;;;;;;;;;18.70;62.60;;;;;;8437207;28;19976;-72
2023/06/16 00:50:10;;;;;;;;;;;18.60;62.80;;;;;;8418027;28;19924;-73
2023/06/16 00:54:15;;;;;;;;;;;18.60;62.80;;;;;;8411666;28;19977;-73
2023/06/16 00:58:17;;;;;;;;;;;18.60;63.00;;;;;;8431009;28;19946;-72
2023/06/16 01:02:18;;;;;;;;;;;18.60;62.90;;;;;;8434163;28;19931;-73
2023/06/16 01:06:25;;;;;;;;;;;18.60;62.60;;;;;;8446198;28;19940;-73
2023/06/16 01:10:33;;;;;;;;;;;18.60;62.70;;;;;;8444126;28;19925;-73
2023/06/16 01:14:43;;;;;;;;;;;18.50;62.60;;;;;;8442839;28;19927;-73
2023/06/16 01:18:45;;;;;;;;;;;18.30;62.80;;;;;;8443544;28;19923;-73
2023/06/16 01:22:47;;;;;;;;;;;18.10;62.90;;;;;;8434774;28;19929;-73
2023/06/16 01:26:51;;;;;;;;;;;18.00;63.00;;;;;;8437135;28;19954;-73
2023/06/16 01:30:53;;;;;;;;;;;17.90;63.10;;;;;;8426384;28;19924;-73
2023/06/16 01:34:56;;;;;;;;;;;17.80;63.50;;;;;;8423767;28;19970;-72
2023/06/16 01:39:00;;;;;;;;;;;17.70;63.50;;;;;;8413718;28;19924;-73
2023/06/16 01:43:02;;;;;;;;;;;17.70;63.90;;;;;;8423255;28;19929;-73
2023/06/16 01:47:03;;;;;;;;;;;17.70;63.90;;;;;;8400411;28;19932;-72
2023/06/16 01:51:05;;;;;;;;;;;17.80;64.00;;;;;;8413104;28;19935;-72
2023/06/16 01:55:07;;;;;;;;;;;17.80;64.00;;;;;;8446469;28;19981;-73
2023/06/16 01:59:09;;;;;;;;;;;17.70;63.80;;;;;;8436942;28;19925;-73
2023/06/16 02:03:10;;;;;;;;;;;17.70;63.80;;;;;;8428983;28;20353;-73
2023/06/16 02:07:13;;;;;;;;;;;17.70;63.50;;;;;;8420680;28;20364;-73
2023/06/16 02:11:15;;;;;;;;;;;17.80;63.50;;;;;;8444509;28;19935;-73
2023/06/16 02:15:18;;;;;;;;;;;17.80;63.60;;;;;;8446045;28;20291;-73
2023/06/16 02:19:19;;;;;;;;;;;17.90;63.70;;;;;;8391833;28;19931;-73
2023/06/16 02:23:21;;;;;;;;;;;17.90;63.70;;;;;;8430783;28;19927;-72
2023/06/16 02:27:23;;;;;;;;;;;18.00;63.50;;;;;;8458332;28;19985;-73
2023/06/16 02:31:24;;;;;;;;;;;18.00;63.00;;;;;;8426311;28;19947;-73
2023/06/16 02:35:26;;;;;;;;;;;17.90;63.00;;;;;;8447839;27;19950;-73
2023/06/16 02:39:28;;;;;;;;;;;17.70;63.10;;;;;;8419311;28;19924;-72
2023/06/16 02:43:29;;;;;;;;;;;17.50;63.30;;;;;;8417718;28;19969;-73
2023/06/16 02:47:31;;;;;;;;;;;17.40;63.60;;;;;;8419903;28;20427;-73
2023/06/16 02:51:34;;;;;;;;;;;17.30;64.00;;;;;;8417041;28;19923;-73
2023/06/16 02:55:35;;;;;;;;;;;17.30;63.80;;;;;;8452188;28;19931;-73
2023/06/16 02:59:37;;;;;;;;;;;17.20;63.90;;;;;;8407702;28;20367;-73
2023/06/16 03:03:39;;;;;;;;;;;17.20;64.00;;;;;;8445055;28;20385;-73
2023/06/16 03:07:41;;;;;;;;;;;17.20;64.10;;;;;;8410016;28;19995;-72
2023/06/16 03:11:42;;;;;;;;;;;17.20;63.90;;;;;;8428335;28;19931;-73
2023/06/16 03:15:44;;;;;;;;;;;17.20;64.00;;;;;;8425471;28;20391;-73
2023/06/16 03:19:49;;;;;;;;;;;17.10;63.90;;;;;;8447092;27;19928;-73
2023/06/16 03:23:51;;;;;;;;;;;17.00;64.50;;;;;;8434763;28;19943;-73
2023/06/16 03:27:53;;;;;;;;;;;16.90;64.30;;;;;;8413398;28;19931;-73
2023/06/16 03:31:55;;;;;;;;;;;16.80;64.20;;;;;;8416221;28;19945;-73
2023/06/16 03:35:57;;;;;;;;;;;16.70;64.20;;;;;;8426011;28;19928;-72
2023/06/16 03:40:05;;;;;;;;;;;16.70;64.20;;;;;;8445079;28;20371;-73
2023/06/16 03:44:07;;;;;;;;;;;16.70;64.20;;;;;;8435038;28;20399;-73
2023/06/16 03:48:09;;;;;;;;;;;16.60;64.20;;;;;;8429602;28;19924;-73
2023/06/16 03:52:10;;;;;;;;;;;16.50;64.30;;;;;;8440233;28;19924;-73
2023/06/16 03:56:12;;;;;;;;;;;16.50;64.70;;;;;;8431326;28;19925;-73
2023/06/16 04:00:14;;;;;;;;;;;16.50;64.60;;;;;;8426712;28;19930;-73
2023/06/16 04:04:15;;;;;;;;;;;16.50;64.90;;;;;;8435537;28;19924;-73
2023/06/16 04:08:17;;;;;;;;;;;16.40;65.10;;;;;;8408015;28;19924;-72
2023/06/16 04:12:19;;;;;;;;;;;16.40;65.50;;;;;;8401487;28;19946;-73
2023/06/16 04:16:21;;;;;;;;;;;16.30;65.90;;;;;;8444636;28;20502;-73
2023/06/16 04:20:22;;;;;;;;;;;16.30;65.70;;;;;;8433757;28;20394;-73
2023/06/16 04:24:24;;;;;;;;;;;16.30;66.10;;;;;;8440647;28;19932;-73
2023/06/16 04:28:27;;;;;;;;;;;16.20;65.80;;;;;;8419311;28;19932;-72
2023/06/16 04:32:29;;;;;;;;;;;16.20;66.10;;;;;;8414492;28;19925;-73
2023/06/16 04:36:30;;;;;;;;;;;16.20;65.90;;;;;;8442415;28;19927;-73
2023/06/16 04:40:32;;;;;;;;;;;16.20;66.70;;;;;;8439578;28;19924;-73
2023/06/16 04:44:34;;;;;;;;;;;16.30;66.20;;;;;;8421419;28;19923;-73
2023/06/16 04:48:37;;;;;;;;;;;16.40;66.40;;;;;;8430861;28;19972;-72
2023/06/16 04:52:39;;;;;;;;;;;16.40;66.70;;;;;;8446261;28;19924;-73
2023/06/16 04:56:41;;;;;;;;;;;16.50;67.10;;;;;;8444317;28;20263;-73
2023/06/16 05:00:43;;;;;;;;;;;16.60;67.40;;;;;;8449758;28;19924;-73
2023/06/16 05:04:45;;;;;;;;;;;16.80;67.80;;;;;;8425012;28;19977;-73
2023/06/16 05:08:46;;;;;;;;;;;16.90;67.70;;;;;;8436248;28;19957;-73
2023/06/16 05:12:48;;;;;;;;;;;17.00;68.30;;;;;;8410964;28;19924;-72
2023/06/16 05:16:50;;;;;;;;;;;17.20;69.50;;;;;;8431848;28;19925;-73
2023/06/16 05:20:51;;;;;;;;;;;17.40;69.40;;;;;;8448709;28;19924;-72
2023/06/16 05:24:57;;;;;;;;;;;17.60;69.50;;;;;;8445609;28;19930;-72
2023/06/16 05:28:59;;;;;;;;;;;17.80;69.80;;;;;;8445495;28;19923;-73
2023/06/16 05:33:00;;;;;;;;;;;18.00;70.10;;;;;;8436163;28;20344;-72
2023/06/16 05:37:02;;;;;;;;;;;18.20;70.10;;;;;;8438754;28;19930;-72
2023/06/16 05:41:04;;;;;;;;;;;18.30;70.40;;;;;;8451927;28;19981;-73
2023/06/16 05:45:06;;;;;;;;;;;18.50;70.90;;;;;;8439037;28;19989;-73
2023/06/16 05:49:07;;;;;;;;;;;18.60;70.90;;;;;;8430229;28;19932;-73
2023/06/16 05:53:09;;;;;;;;;;;18.80;71.10;;;;;;8439878;28;19928;-73
2023/06/16 05:57:11;;;;;;;;;;;19.00;71.20;;;;;;8406642;28;19935;-73
2023/06/16 06:01:13;;;;;;;;;;;19.20;71.60;;;;;;8411320;28;19984;-73
2023/06/16 06:05:15;;;;;;;;;;;19.30;72.00;;;;;;8429050;28;20303;-73
2023/06/16 06:09:16;;;;;;;;;;;19.50;71.70;;;;;;8437692;28;19931;-72
2023/06/16 06:13:18;;;;;;;;;;;19.60;71.90;;;;;;8431141;28;19924;-72
2023/06/16 06:17:20;;;;;;;;;;;19.80;72.10;;;;;;8422853;28;19924;-73
2023/06/16 06:21:21;;;;;;;;;;;19.90;72.50;;;;;;8445095;28;19935;-73
2023/06/16 06:25:23;;;;;;;;;;;20.00;72.50;;;;;;8417043;28;19977;-73
2023/06/16 06:29:25;;;;;;;;;;;20.10;72.30;;;;;;8436160;28;19928;-73
2023/06/16 06:33:27;;;;;;;;;;;20.30;72.40;;;;;;8444321;28;19924;-73
2023/06/16 06:37:31;;;;;;;;;;;20.40;72.40;;;;;;8441400;28;20259;-73
2023/06/16 06:41:33;;;;;;;;;;;20.50;72.80;;;;;;8440329;28;19966;-73
2023/06/16 06:45:34;;;;;;;;;;;20.70;73.00;;;;;;8425654;28;19924;-73
2023/06/16 06:49:36;;;;;;;;;;;20.80;72.90;;;;;;8451561;28;19935;-72
2023/06/16 06:53:38;;;;;;;;;;;20.90;73.10;;;;;;8425991;28;20521;-73
2023/06/16 06:57:40;;;;;;;;;;;21.00;72.60;;;;;;8439931;27;19977;-73
2023/06/16 07:01:42;;;;;;;;;;;21.10;72.70;;;;;;8435515;28;19934;-72
2023/06/16 07:05:43;;;;;;;;;;;21.20;72.90;;;;;;8430368;28;20400;-73
2023/06/16 07:09:45;;;;;;;;;;;21.30;72.50;;;;;;8446612;28;19952;-73
2023/06/16 07:13:47;;;;;;;;;;;21.40;72.80;;;;;;8443581;28;19981;-73
2023/06/16 07:17:48;;;;;;;;;;;21.50;72.50;;;;;;8446711;27;19928;-73
2023/06/16 07:21:50;;;;;;;;;;;21.60;72.80;;;;;;8407384;28;19931;-72
2023/06/16 07:25:52;;;;;;;;;;;21.60;73.00;;;;;;8429209;28;19928;-72
2023/06/16 07:29:54;;;;;;;;;;;21.70;72.70;;;;;;8416371;28;20371;-73
2023/06/16 07:33:56;;;;;;;;;;;21.80;73.00;;;;;;8437338;27;19974;-73
2023/06/16 07:37:58;;;;;;;;;;;21.80;72.60;;;;;;8443716;28;19936;-73
2023/06/16 07:41:59;;;;;;;;;;;21.90;72.50;;;;;;8438917;27;20461;-73
2023/06/16 07:46:01;;;;;;;;;;;21.90;71.90;;;;;;8423262;28;19988;-73
2023/06/16 07:50:03;;;;;;;;;;;21.90;71.90;;;;;;8427479;28;19924;-73
2023/06/16 07:54:04;;;;;;;;;;;22.00;71.80;;;;;;8409634;28;19924;-73
2023/06/16 07:58:06;;;;;;;;;;;22.10;71.40;;;;;;8434423;28;20341;-73
2023/06/16 08:02:08;;;;;;;;;;;22.10;71.20;;;;;;8449017;28;20232;-72
2023/06/16 08:06:09;;;;;;;;;;;22.10;71.00;;;;;;8443363;28;19931;-73
2023/06/16 08:10:11;;;;;;;;;;;22.20;70.90;;;;;;8441436;28;19924;-72
2023/06/16 08:14:16;;;;;;;;;;;22.30;70.60;;;;;;8441097;28;19976;-73
2023/06/16 08:18:18;;;;;;;;;;;22.40;70.80;;;;;;8440182;28;19923;-73
2023/06/16 08:22:19;;;;;;;;;;;22.40;70.90;;;;;;8445479;28;19970;-73
2023/06/16 08:26:21;;;;;;;;;;;22.60;71.00;;;;;;8437125;28;20436;-73
2023/06/16 08:30:23;;;;;;;;;;;22.70;70.90;;;;;;8440643;28;19928;-73
2023/06/16 08:34:25;;;;;;;;;;;22.70;71.00;;;;;;8433304;28;19923;-73
2023/06/16 08:38:27;;;;;;;;;;;22.80;70.90;;;;;;8447929;28;19947;-72
2023/06/16 08:42:29;;;;;;;;;;;23.00;70.70;;;;;;8431963;28;19939;-72
2023/06/16 08:46:31;;;;;;;;;;;23.00;69.90;;;;;;8403188;28;19978;-73
2023/06/16 08:50:33;;;;;;;;;;;23.00;70.20;;;;;;8445427;28;19966;-73
2023/06/16 08:54:37;;;;;;;;;;;23.00;68.90;;;;;;8431174;28;20452;-73
2023/06/16 08:58:40;;;;;;;;;;;23.00;69.00;;;;;;8427303;28;19928;-73
2023/06/16 09:02:44;;;;;;;;;;;23.00;67.20;;;;;;8436964;28;19933;-72
2023/06/16 09:06:47;;;;;;;;;;;23.00;68.40;;;;;;8417849;28;19970;-73
2023/06/16 09:10:54;;;;;;;;;;;23.10;68.50;;;;;;8451299;28;20362;-73
2023/06/16 09:14:56;;;;;;;;;;;23.20;68.10;;;;;;8432643;28;19970;-73
2023/06/16 09:19:05;;;;;;;;;;;23.20;68.50;;;;;;8451097;28;19939;-73
2023/06/16 09:23:08;;;;;;;;;;;23.30;69.00;;;;;;8457364;28;19928;-73
2023/06/16 09:27:10;;;;;;;;;;;23.30;67.80;;;;;;8440895;28;19943;-73
2023/06/16 09:31:12;;;;;;;;;;;23.30;66.70;;;;;;8450927;28;19931;-73
2023/06/16 09:35:21;;;;;;;;;;;23.40;66.80;;;;;;8431240;28;20022;-73
2023/06/16 09:39:24;;;;;;;;;;;23.40;66.40;;;;;;8433092;28;19928;-72
2023/06/16 09:43:26;;;;;;;;;;;23.50;68.00;;;;;;8455878;28;20022;-73
2023/06/16 09:47:29;;;;;;;;;;;23.50;67.90;;;;;;8456168;28;19978;-73
2023/06/16 09:51:30;;;;;;;;;;;23.60;69.10;;;;;;8461606;28;19973;-74
2023/06/16 09:55:33;;;;;;;;;;;23.70;59.00;;;;;;8411624;28;20331;-73
2023/06/16 09:59:35;;;;;;;;;;;23.80;66.50;;;;;;8463559;28;19931;-73
2023/06/16 10:03:38;;;;;;;;;;;23.80;66.10;;;;;;8432039;28;19928;-74
2023/06/16 10:07:41;;;;;;;;;;;23.90;67.50;;;;;;8426167;28;19924;-74
2023/06/16 10:11:44;;;;;;;;;;;24.00;67.60;;;;;;8430195;28;19928;-74
2023/06/16 10:15:46;;;;;;;;;;;24.10;66.90;;;;;;8451880;28;19925;-74
2023/06/16 10:19:50;;;;;;;;;;;24.10;66.30;;;;;;8453209;28;20341;-74
2023/06/16 10:23:52;;;;;;;;;;;24.10;66.00;;;;;;8451312;28;19923;-73
2023/06/16 10:27:53;;;;;;;;;;;24.10;64.50;;;;;;8427097;28;19988;-74
2023/06/16 10:32:21;;;;;;;;;;;24.20;62.80;;;;;;8440716;28;19931;-73
2023/06/16 10:36:31;;;;;;;;;;;24.20;67.10;;;;;;8458282;28;19973;-74
2023/06/16 10:40:35;;;;;;;;;;;24.20;67.20;;;;;;8420495;28;19932;-74
2023/06/16 10:44:37;;;;;;;;;;;24.30;67.00;;;;;;8439548;28;20436;-74
2023/06/16 10:49:05;;;;;;;;;;;24.50;65.90;;;;;;8447659;28;19931;-75
2023/06/16 10:53:09;;;;;;;;;;;24.60;65.90;;;;;;8429129;28;19927;-75
2023/06/16 10:57:14;;;;;;;;;;;24.60;64.20;;;;;;8461409;28;19924;-75
2023/06/16 11:01:23;;;;;;;;;;;24.70;63.50;;;;;;8413761;28;19931;-75
2023/06/16 11:05:41;;;;;;;;;;;24.80;65.60;;;;;;8448842;28;19924;-75
2023/06/16 11:09:42;;;;;;;;;;;24.90;63.10;;;;;;8434129;28;19954;-75
2023/06/16 11:13:46;;;;;;;;;;;24.90;65.50;;;;;;8439153;28;19932;-74
2023/06/16 11:17:48;;;;;;;;;;;24.90;61.20;;;;;;8460518;28;19961;-74
2023/06/16 11:21:50;;;;;;;;;;;25.00;62.90;;;;;;8405761;28;19964;-75
2023/06/16 11:25:52;;;;;;;;;;;25.10;62.20;;;;;;8459344;28;20433;-74
2023/06/16 11:29:54;;;;;;;;;;;25.20;65.20;;;;;;8440757;28;19989;-75
2023/06/16 11:33:59;;;;;;;;;;;25.20;66.20;;;;;;8423274;28;20279;-74
2023/06/16 11:38:01;;;;;;;;;;;25.10;66.30;;;;;;8425894;28;19932;-74
2023/06/16 11:42:04;;;;;;;;;;;25.00;66.30;;;;;;8423966;28;19981;-75
2023/06/16 11:46:06;;;;;;;;;;;25.00;64.20;;;;;;8418130;28;19974;-75
2023/06/16 11:50:08;;;;;;;;;;;25.10;60.30;;;;;;8408914;28;19949;-73
2023/06/16 11:54:10;;;;;;;;;;;25.20;64.00;;;;;;8430677;28;19924;-74
2023/06/16 11:58:13;;;;;;;;;;;25.30;57.90;;;;;;8428610;28;20011;-75
2023/06/16 12:02:15;;;;;;;;;;;25.40;50.20;;;;;;8439258;28;19928;-73
2023/06/16 12:06:17;;;;;;;;;;;25.40;62.80;;;;;;8429063;28;19946;-73
2023/06/16 12:10:19;;;;;;;;;;;25.50;63.10;;;;;;8430623;28;19924;-73
2023/06/16 12:14:22;;;;;;;;;;;25.50;63.40;;;;;;8442830;28;19924;-74
2023/06/16 12:18:24;;;;;;;;;;;25.60;62.70;;;;;;8410935;28;19932;-75
2023/06/16 12:22:32;;;;;;;;;;;25.70;63.50;;;;;;8439086;28;19932;-74
2023/06/16 12:26:39;;;;;;;;;;;25.70;63.10;;;;;;8428636;28;19932;-75
2023/06/16 12:30:41;;;;;;;;;;;25.70;63.50;;;;;;8435820;28;19924;-75
2023/06/16 12:34:48;;;;;;;;;;;25.80;63.10;;;;;;8433496;28;19924;-75
2023/06/16 12:38:50;;;;;;;;;;;25.70;63.60;;;;;;8430855;28;19927;-74
2023/06/16 12:42:52;;;;;;;;;;;25.60;62.60;;;;;;8438685;28;19931;-74
2023/06/16 12:46:54;;;;;;;;;;;25.70;55.40;;;;;;8428397;28;19932;-73
2023/06/16 12:50:55;;;;;;;;;;;25.70;51.80;;;;;;8416970;28;20372;-74
2023/06/16 12:54:58;;;;;;;;;;;25.80;58.70;;;;;;8418775;28;19924;-74
2023/06/16 12:59:00;;;;;;;;;;;25.80;61.60;;;;;;8442375;28;19923;-73
2023/06/16 13:03:02;;;;;;;;;;;25.90;60.90;;;;;;8424847;28;19951;-73
2023/06/16 13:07:04;;;;;;;;;;;26.00;61.40;;;;;;8426446;28;20378;-73
2023/06/16 13:11:06;;;;;;;;;;;26.00;60.40;;;;;;8442936;28;19928;-74
2023/06/16 13:15:08;;;;;;;;;;;26.00;55.10;;;;;;8445263;27;19927;-74
2023/06/16 13:19:10;;;;;;;;;;;26.10;61.30;;;;;;8440958;28;20146;-73
2023/06/16 13:23:11;;;;;;;;;;;26.00;60.00;;;;;;8439909;28;19924;-75
2023/06/16 13:27:13;;;;;;;;;;;26.10;60.90;;;;;;8404267;28;19928;-74
2023/06/16 13:31:15;;;;;;;;;;;26.10;60.00;;;;;;8461048;27;19930;-74
2023/06/16 13:35:17;;;;;;;;;;;26.10;60.00;;;;;;8453125;27;19928;-73
2023/06/16 13:39:18;;;;;;;;;;;26.20;60.20;;;;;;8461421;27;19923;-74
2023/06/16 13:43:20;;;;;;;;;;;26.20;61.30;;;;;;8459176;27;19924;-73
2023/06/16 13:47:22;;;;;;;;;;;26.30;61.60;;;;;;8468017;27;19924;-74
2023/06/16 13:51:23;;;;;;;;;;;26.30;61.30;;;;;;8454998;27;19924;-74
2023/06/16 13:55:25;;;;;;;;;;;26.30;61.30;;;;;;8449662;27;19931;-73
2023/06/16 13:59:27;;;;;;;;;;;26.30;61.10;;;;;;8468401;27;19931;-74
2023/06/16 14:03:29;;;;;;;;;;;26.30;60.10;;;;;;8452199;27;20875;-73
2023/06/16 14:07:32;;;;;;;;;;;26.30;61.10;;;;;;8465719;27;19932;-74
2023/06/16 14:11:33;;;;;;;;;;;26.20;61.30;;;;;;8463027;27;20420;-74
2023/06/16 14:15:35;;;;;;;;;;;26.10;60.50;;;;;;8462732;27;20342;-74
2023/06/16 14:19:37;;;;;;;;;;;26.00;60.20;;;;;;8456273;27;19930;-74
2023/06/16 14:23:38;;;;;;;;;;;26.00;60.80;;;;;;8457878;27;20370;-74
2023/06/16 14:27:40;;;;;;;;;;;26.10;61.60;;;;;;8469176;27;20345;-74
2023/06/16 14:31:42;;;;;;;;;;;26.30;61.60;;;;;;8467758;27;20264;-73
2023/06/16 14:35:45;;;;;;;;;;;26.40;61.70;;;;;;8470962;27;20201;-74
2023/06/16 14:39:47;;;;;;;;;;;26.40;61.90;;;;;;8469515;27;19930;-73
2023/06/16 14:43:48;;;;;;;;;;;26.50;61.40;;;;;;8477215;27;20244;-74
2023/06/16 14:47:50;;;;;;;;;;;26.60;62.00;;;;;;8463975;27;19924;-74
2023/06/16 14:51:52;;;;;;;;;;;26.70;62.10;;;;;;8453561;27;19924;-74
2023/06/16 14:55:53;;;;;;;;;;;26.80;62.30;;;;;;8456201;27;19923;-73
2023/06/16 14:59:55;;;;;;;;;;;26.80;62.00;;;;;;8453997;27;20041;-74
2023/06/16 15:03:57;;;;;;;;;;;26.80;61.90;;;;;;8477490;27;19984;-74
2023/06/16 15:07:58;;;;;;;;;;;26.80;62.10;;;;;;8457900;28;19923;-73
2023/06/16 15:12:00;;;;;;;;;;;26.90;62.00;;;;;;8442603;28;19958;-75
2023/06/16 15:16:02;;;;;;;;;;;27.00;62.20;;;;;;8460390;28;19923;-75
2023/06/16 15:20:04;;;;;;;;;;;27.00;61.90;;;;;;8456767;28;20310;-74
2023/06/16 15:24:06;;;;;;;;;;;27.00;61.70;;;;;;8437988;28;19928;-75
2023/06/16 15:28:08;;;;;;;;;;;27.00;61.70;;;;;;8455276;28;19966;-74
2023/06/16 15:32:14;;;;;;;;;;;27.00;61.40;;;;;;8451856;27;20341;-74
2023/06/16 15:36:16;;;;;;;;;;;27.00;61.20;;;;;;8448381;27;19928;-74
2023/06/16 15:40:17;;;;;;;;;;;27.00;61.20;;;;;;8457106;27;19924;-75
2023/06/16 15:44:19;;;;;;;;;;;27.10;61.00;;;;;;8450737;27;19949;-75
2023/06/16 15:48:21;;;;;;;;;;;27.10;60.70;;;;;;8449837;28;19928;-75
2023/06/16 15:52:23;;;;;;;;;;;27.20;60.60;;;;;;8444968;28;19924;-75
2023/06/16 15:56:25;;;;;;;;;;;27.30;60.90;;;;;;8452033;28;20205;-74
2023/06/16 16:00:26;;;;;;;;;;;27.50;60.50;;;;;;8449252;28;19924;-74
2023/06/16 16:04:29;;;;;;;;;;;27.60;60.50;;;;;;8442518;27;20370;-74
2023/06/16 16:08:32;;;;;;;;;;;27.70;60.30;;;;;;8451382;27;19928;-73
2023/06/16 16:12:34;;;;;;;;;;;27.80;59.90;;;;;;8458699;27;19923;-75
2023/06/16 16:16:35;;;;;;;;;;;27.80;60.00;;;;;;8440714;28;19931;-74
2023/06/16 16:20:39;;;;;;;;;;;27.80;59.90;;;;;;8464006;28;19924;-73
2023/06/16 16:24:41;;;;;;;;;;;27.90;59.80;;;;;;8453282;28;20007;-74
2023/06/16 16:28:43;;;;;;;;;;;28.00;60.80;;;;;;8455725;28;19931;-74
2023/06/16 16:32:44;;;;;;;;;;;28.30;62.70;;;;;;8457785;28;19928;-74
2023/06/16 16:36:46;;;;;;;;;;;28.60;64.70;;;;;;8458569;28;19923;-74
2023/06/16 16:40:48;;;;;;;;;;;28.90;66.60;;;;;;8446199;28;19924;-73
2023/06/16 16:44:50;;;;;;;;;;;29.00;66.90;;;;;;8443923;28;19931;-74
2023/06/16 16:48:52;;;;;;;;;;;29.10;67.70;;;;;;8448112;28;19923;-74
2023/06/16 16:52:56;;;;;;;;;;;29.10;67.90;;;;;;8440630;28;19990;-74
2023/06/16 16:56:58;;;;;;;;;;;29.20;67.50;;;;;;8437921;28;20028;-74
2023/06/16 17:01:00;;;;;;;;;;;29.20;66.90;;;;;;8450957;28;19923;-74
2023/06/16 17:05:01;;;;;;;;;;;29.00;66.40;;;;;;8455960;28;19935;-75
2023/06/16 17:09:03;;;;;;;;;;;28.70;65.30;;;;;;8448146;28;19923;-74
2023/06/16 17:13:06;;;;;;;;;;;28.50;64.40;;;;;;8442301;28;19981;-74
2023/06/16 17:17:10;;;;;;;;;;;28.30;63.50;;;;;;8451666;28;19932;-74
2023/06/16 17:21:12;;;;;;;;;;;28.00;62.30;;;;;;8440371;28;19977;-75
2023/06/16 17:25:13;;;;;;;;;;;27.70;61.60;;;;;;8424693;28;20383;-73
2023/06/16 17:29:15;;;;;;;;;;;27.40;60.50;;;;;;8434356;28;19945;-74
2023/06/16 17:33:17;;;;;;;;;;;27.20;59.90;;;;;;8437415;28;19932;-74
2023/06/16 17:37:18;;;;;;;;;;;27.10;59.30;;;;;;8450034;28;19969;-74
2023/06/16 17:41:20;;;;;;;;;;;27.00;59.00;;;;;;8459253;27;19924;-75
2023/06/16 17:45:22;;;;;;;;;;;26.90;58.70;;;;;;8461624;27;19973;-74
2023/06/16 17:49:23;;;;;;;;;;;26.80;58.30;;;;;;8461161;27;19928;-74
2023/06/16 17:53:25;;;;;;;;;;;26.70;58.10;;;;;;8457842;27;19923;-74
2023/06/16 17:57:27;;;;;;;;;;;26.60;57.80;;;;;;8454776;27;19931;-75
2023/06/16 18:01:29;;;;;;;;;;;26.50;57.70;;;;;;8454267;27;19932;-74
2023/06/16 18:05:31;;;;;;;;;;;26.40;57.40;;;;;;8451962;27;19974;-73
2023/06/16 18:09:33;;;;;;;;;;;26.30;57.10;;;;;;8468877;27;19924;-74
2023/06/16 18:13:35;;;;;;;;;;;26.20;57.10;;;;;;8442247;28;20625;-74
2023/06/16 18:17:36;;;;;;;;;;;26.10;57.00;;;;;;8455595;28;19984;-75
2023/06/16 18:21:38;;;;;;;;;;;26.00;56.90;;;;;;8438480;27;20347;-75
2023/06/16 18:25:40;;;;;;;;;;;26.00;56.70;;;;;;8462529;28;19969;-74
2023/06/16 18:29:42;;;;;;;;;;;25.90;56.50;;;;;;8444824;28;19924;-74
2023/06/16 18:33:43;;;;;;;;;;;25.80;56.50;;;;;;8448984;28;19931;-75
2023/06/16 18:37:46;;;;;;;;;;;25.70;56.40;;;;;;8446686;28;19935;-75
2023/06/16 18:41:50;;;;;;;;;;;25.60;56.30;;;;;;8450508;28;19931;-75
2023/06/16 18:45:51;;;;;;;;;;;25.60;56.30;;;;;;8450939;28;19924;-74
2023/06/16 18:49:53;;;;;;;;;;;25.50;56.20;;;;;;8430491;28;20397;-74
2023/06/16 18:53:57;;;;;;;;;;;25.30;56.00;;;;;;8443535;28;19940;-74
2023/06/16 18:57:59;;;;;;;;;;;25.20;55.90;;;;;;8450153;27;19924;-74
2023/06/16 19:02:00;;;;;;;;;;;25.10;55.80;;;;;;8448524;28;19935;-75
2023/06/16 19:06:02;;;;;;;;;;;25.00;55.90;;;;;;8443933;28;19950;-73
2023/06/16 19:10:04;;;;;;;;;;;25.00;56.00;;;;;;8432002;28;19959;-74
2023/06/16 19:14:06;;;;;;;;;;;24.90;55.80;;;;;;8437235;28;20439;-74
2023/06/16 19:18:07;;;;;;;;;;;24.90;55.90;;;;;;8447121;28;19928;-74
2023/06/16 19:22:09;;;;;;;;;;;24.80;55.80;;;;;;8455017;27;19927;-74
2023/06/16 19:26:11;;;;;;;;;;;24.80;55.80;;;;;;8455462;28;19924;-74
2023/06/16 19:30:12;;;;;;;;;;;24.70;55.70;;;;;;8450178;28;19924;-74
2023/06/16 19:34:15;;;;;;;;;;;24.60;55.60;;;;;;8456185;27;19924;-74
2023/06/16 19:38:16;;;;;;;;;;;24.50;55.50;;;;;;8448907;28;19931;-74
2023/06/16 19:42:18;;;;;;;;;;;24.50;55.50;;;;;;8447539;28;19962;-74
2023/06/16 19:46:20;;;;;;;;;;;24.40;55.40;;;;;;8452492;28;19931;-74
2023/06/16 19:50:22;;;;;;;;;;;24.30;55.30;;;;;;8421661;27;19924;-74
2023/06/16 19:54:23;;;;;;;;;;;24.20;55.20;;;;;;8443419;27;20384;-73
2023/06/16 19:58:25;;;;;;;;;;;24.20;55.20;;;;;;8461268;27;19976;-74
2023/06/16 20:02:27;;;;;;;;;;;24.10;55.70;;;;;;8447885;27;19931;-74
2023/06/16 20:06:29;;;;;;;;;;;24.00;54.90;;;;;;8429262;28;19931;-74
2023/06/16 20:10:32;;;;;;;;;;;24.00;54.90;;;;;;8421614;28;19924;-73
2023/06/16 20:14:34;;;;;;;;;;;23.90;54.80;;;;;;8443764;28;19924;-74
2023/06/16 20:18:36;;;;;;;;;;;23.80;54.90;;;;;;8453978;28;19928;-74
2023/06/16 20:22:38;;;;;;;;;;;23.70;54.90;;;;;;8432394;28;19935;-73
2023/06/16 20:26:40;;;;;;;;;;;23.60;54.90;;;;;;8443404;28;19928;-74
2023/06/16 20:30:42;;;;;;;;;;;23.50;54.90;;;;;;8445701;28;19924;-74
2023/06/16 20:34:44;;;;;;;;;;;23.30;54.90;;;;;;8442580;28;19992;-73
2023/06/16 20:38:47;;;;;;;;;;;23.20;55.00;;;;;;8442679;28;20000;-74
2023/06/16 20:42:50;;;;;;;;;;;23.00;55.00;;;;;;8436691;28;19931;-74
2023/06/16 20:46:52;;;;;;;;;;;22.90;55.00;;;;;;8449934;28;19924;-74
2023/06/16 20:50:55;;;;;;;;;;;22.70;55.00;;;;;;8451043;28;19924;-74
2023/06/16 20:54:56;;;;;;;;;;;22.50;54.90;;;;;;8437275;28;19941;-74
2023/06/16 20:58:59;;;;;;;;;;;22.40;55.00;;;;;;8432002;28;19924;-74
2023/06/16 21:03:02;;;;;;;;;;;22.20;54.80;;;;;;8439065;28;20010;-74
2023/06/16 21:07:04;;;;;;;;;;;22.10;54.90;;;;;;8440878;28;19928;-74
2023/06/16 21:11:06;;;;;;;;;;;22.00;54.80;;;;;;8429414;28;19923;-74
2023/06/16 21:15:09;;;;;;;;;;;21.80;54.90;;;;;;8444953;28;20307;-73
2023/06/16 21:19:10;;;;;;;;;;;21.60;55.00;;;;;;8447238;28;20415;-74
2023/06/16 21:23:12;;;;;;;;;;;21.40;55.10;;;;;;8441611;28;19924;-73
2023/06/16 21:27:14;;;;;;;;;;;21.20;55.10;;;;;;8461715;28;19924;-74
2023/06/16 21:31:16;;;;;;;;;;;21.10;55.80;;;;;;8441772;27;19924;-73
2023/06/16 21:35:17;;;;;;;;;;;20.90;55.20;;;;;;8431627;28;19939;-73
2023/06/16 21:39:21;;;;;;;;;;;20.80;55.30;;;;;;8457593;28;19924;-73
2023/06/16 21:43:23;;;;;;;;;;;20.70;55.40;;;;;;8444449;28;19924;-74
2023/06/16 21:47:25;;;;;;;;;;;20.60;55.40;;;;;;8446173;28;19928;-74
2023/06/16 21:51:26;;;;;;;;;;;20.50;55.40;;;;;;8429384;28;19993;-74
2023/06/16 21:55:28;;;;;;;;;;;20.40;55.50;;;;;;8441219;28;19973;-74
2023/06/16 21:59:30;;;;;;;;;;;20.30;55.50;;;;;;8438914;28;20371;-73
2023/06/16 22:03:31;;;;;;;;;;;20.20;55.60;;;;;;8456664;28;19927;-73
2023/06/16 22:07:34;;;;;;;;;;;20.10;55.60;;;;;;8450029;27;19932;-73
2023/06/16 22:11:35;;;;;;;;;;;20.00;55.50;;;;;;8445115;28;19931;-74
2023/06/16 22:15:37;;;;;;;;;;;20.00;55.40;;;;;;8471788;27;20368;-73
2023/06/16 22:19:41;;;;;;;;;;;19.90;55.70;;;;;;8449087;28;19924;-73
2023/06/16 22:23:42;;;;;;;;;;;19.80;55.70;;;;;;8447311;28;19931;-74
2023/06/16 22:27:46;;;;;;;;;;;19.70;55.70;;;;;;8434422;28;19930;-74
2023/06/16 22:31:48;;;;;;;;;;;19.60;55.70;;;;;;8451083;28;20367;-74
2023/06/16 22:35:50;;;;;;;;;;;19.50;55.70;;;;;;8439747;28;20055;-73
2023/06/16 22:39:52;;;;;;;;;;;19.40;55.60;;;;;;8452732;27;19970;-73
2023/06/16 22:43:55;;;;;;;;;;;19.30;55.60;;;;;;8446661;28;19976;-74
2023/06/16 22:47:57;;;;;;;;;;;19.20;55.60;;;;;;8447910;28;19924;-73
2023/06/16 22:51:59;;;;;;;;;;;19.10;55.90;;;;;;8451287;28;20391;-73
2023/06/16 22:56:00;;;;;;;;;;;18.90;56.00;;;;;;8442378;28;19940;-73
2023/06/16 23:00:05;;;;;;;;;;;18.70;56.00;;;;;;8444582;28;19925;-73
2023/06/16 23:04:07;;;;;;;;;;;18.60;56.10;;;;;;8443404;28;20367;-73
2023/06/16 23:08:09;;;;;;;;;;;18.60;56.20;;;;;;8455508;28;20371;-74
2023/06/16 23:12:11;;;;;;;;;;;18.50;56.10;;;;;;8455987;27;19923;-73
2023/06/16 23:16:13;;;;;;;;;;;18.40;56.10;;;;;;8440184;28;19924;-73
2023/06/16 23:20:14;;;;;;;;;;;18.30;56.20;;;;;;8449970;28;19981;-73
2023/06/16 23:24:18;;;;;;;;;;;18.20;56.20;;;;;;8445855;28;20346;-74
2023/06/16 23:28:21;;;;;;;;;;;18.20;56.20;;;;;;8435769;28;20398;-73